Date,TemperatureHighF,TemperatureAvgF,TemperatureLowF,DewpointHighF,DewpointAvgF,DewpointLowF,HumidityHigh,HumidityAvg,HumidityLow,PressureMaxIn,PressureMinIn,WindSpeedMaxMPH,WindSpeedAvgMPH,GustSpeedMaxMPH,PrecipitationSumIn
2012-3-3,42.2,34.1,26.3,38.0,28.8,22.5,100,82,54,29.86,29.32,13,5,0,0.15
2012-3-4,25.0,25.0,25.0,20.3,20.3,20.3,82,82,82,29.90,29.90,7,7,10,0.00
2012-3-5,16.5,11.6,5.9,3.5,1.5,-0.8,77,63,54,30.25,29.83,6,4,0,0.00
2012-3-8,59.9,47.7,33.8,49.1,40.4,28.4,92,77,53,30.16,29.57,13,4,0,0.41
2012-3-9,35.1,27.4,17.3,32.5,21.8,14.4,93,80,55,30.16,29.73,7,3,15,0.13
2012-3-10,30.3,23.0,16.7,21.7,16.5,13.0,90,77,57,30.49,30.16,6,1,9,0.00
2012-3-11,51.0,32.6,17.0,31.1,22.2,13.8,88,68,40,30.45,30.23,6,2,9,0.00
2012-3-12,58.4,39.9,25.9,36.5,30.1,23.3,91,71,40,30.29,30.10,4,1,7,0.00
2012-3-13,55.7,41.2,32.1,48.3,37.3,30.3,94,86,66,30.10,29.86,5,0,6,0.06
2012-3-14,45.9,36.8,30.3,38.1,33.7,28.7,95,89,69,30.27,29.96,4,1,6,0.03
2012-3-15,42.3,37.2,34.4,36.3,33.9,31.5,94,88,79,30.36,30.25,5,1,6,0.00
2012-3-16,37.5,35.8,34.2,35.9,34.3,32.9,96,94,88,30.29,30.10,6,2,9,0.11
2012-3-17,53.4,41.1,33.6,38.8,35.4,31.2,96,82,50,30.38,30.24,5,1,7,0.00
2012-3-18,73.3,46.0,30.3,49.3,37.5,28.5,100,76,35,30.28,30.09,3,1,5,0.00
2012-3-19,73.2,51.3,37.3,59.4,44.2,34.2,93,79,49,30.25,30.13,4,1,8,0.01
2012-3-20,75.9,51.9,33.6,54.9,43.2,31.8,95,75,44,30.31,30.18,5,1,7,0.00
2012-3-21,78.1,54.5,36.2,55.1,44.6,34.4,95,73,38,30.34,30.17,5,1,11,0.00
2012-3-22,77.5,57.1,36.3,56.0,47.3,34.3,95,73,44,30.20,30.02,7,2,14,0.00
2012-3-23,60.1,51.1,39.0,47.5,29.2,12.8,91,49,16,30.17,30.06,8,2,16,0.00
2012-3-24,52.0,42.5,31.6,29.8,16.8,6.5,65,38,18,30.19,30.01,5,1,6,0.00
2012-3-25,43.9,41.3,38.9,40.5,35.7,27.1,93,81,57,30.01,29.72,6,2,9,0.04
2012-3-26,40.1,28.6,21.8,38.8,19.1,0.9,95,70,38,30.09,29.62,8,5,18,0.06
2012-3-27,36.0,25.4,15.4,16.7,4.0,-1.5,61,41,20,30.29,30.08,7,4,13,0.00
2012-3-28,37.7,31.6,24.8,33.0,24.1,8.8,94,75,42,30.18,29.58,11,3,13,0.03
2012-3-29,36.2,32.3,30.0,34.8,29.0,25.5,95,88,81,29.94,29.58,4,2,7,0.04
2012-3-30,36.4,28.7,23.5,26.6,19.5,16.1,91,69,47,30.08,29.93,7,3,13,0.06
2012-3-31,46.3,32.3,21.1,22.7,18.9,13.9,87,62,28,30.08,29.89,4,1,9,0.00
2012-4-1,43.7,31.5,19.7,32.1,24.5,16.4,92,77,41,29.91,29.69,5,0,6,0.00
2012-4-2,43.0,35.4,28.6,31.4,21.1,7.8,93,60,27,29.84,29.68,9,2,16,0.00
2012-4-3,46.3,36.0,27.8,25.0,13.6,7.0,65,40,29,29.90,29.73,7,3,12,0.00
2012-4-4,48.5,38.8,28.8,29.0,24.7,19.1,77,58,36,29.73,29.50,10,3,18,0.00
2012-4-5,36.5,33.6,30.4,27.4,23.2,19.7,75,66,55,29.89,29.64,7,3,12,0.00
2012-4-6,42.8,35.8,29.6,22.4,19.2,15.8,67,52,37,30.02,29.89,7,2,10,0.00
2012-4-7,43.4,37.3,30.9,27.7,21.2,15.6,72,52,43,30.05,29.99,0,0,0,0.00
2012-4-8,45.8,39.2,33.3,32.6,27.5,25.1,75,63,50,30.01,29.51,0,0,0,0.00
2012-4-9,41.1,38.1,33.3,37.9,34.5,28.8,92,87,71,29.53,29.39,0,0,0,0.26
2012-4-10,47.0,38.6,34.1,39.0,35.2,32.1,94,88,64,29.74,29.51,0,0,0,0.11
2012-4-11,47.3,38.4,32.9,39.3,34.8,30.8,95,87,63,29.94,29.74,0,0,0,0.14
2012-4-12,49.0,40.0,30.6,39.2,34.0,27.9,94,80,53,30.11,29.94,2,0,7,0.05
2012-4-13,56.5,42.0,26.7,35.5,27.2,21.8,93,62,27,30.16,30.04,5,1,11,0.00
2012-4-14,62.3,47.0,28.3,37.9,28.6,20.9,89,55,21,30.12,29.95,5,1,14,0.00
2012-4-15,70.2,55.2,41.3,53.0,43.7,35.2,85,67,39,29.95,29.85,7,1,10,0.00
2012-4-16,83.3,67.8,55.6,60.5,52.7,45.8,89,63,28,29.94,29.74,10,2,15,0.00
2012-4-17,69.7,59.3,41.8,57.6,41.3,28.7,78,53,29,30.19,29.77,6,2,13,0.00
2012-4-18,54.8,41.5,29.0,31.6,26.8,24.3,87,58,34,30.30,30.12,4,1,10,0.00
2012-4-19,67.6,44.2,24.0,40.9,31.3,22.0,95,66,28,30.12,29.90,7,1,9,0.00
2012-4-20,74.6,57.1,35.1,49.8,41.7,32.7,93,60,34,29.96,29.75,9,2,15,0.00
2012-4-21,63.3,52.1,38.2,54.3,45.6,36.3,93,79,66,29.83,29.66,8,2,12,0.45
2012-4-22,40.4,37.1,33.9,36.5,34.5,32.1,93,90,83,29.94,29.78,4,1,10,0.56
2012-4-23,61.8,48.2,37.6,55.8,45.4,35.9,94,90,77,29.82,29.25,4,1,13,0.58
2012-4-24,51.7,44.3,39.8,47.6,37.0,30.1,91,76,56,29.62,29.26,12,5,21,0.06
2012-4-25,48.8,40.0,30.1,37.9,32.9,28.1,95,77,51,29.87,29.62,10,2,13,0.00
2012-4-26,56.3,43.7,34.9,43.4,35.0,30.7,93,73,39,29.89,29.54,6,1,10,0.13
2012-4-27,45.7,35.5,28.9,43.7,30.7,21.1,94,83,72,30.03,29.50,7,3,16,0.08
2012-4-28,42.5,32.4,25.3,23.5,19.6,14.8,89,62,34,30.14,30.03,7,3,13,0.02
2012-4-29,43.2,35.0,21.8,22.6,14.8,9.2,86,48,27,30.24,30.07,8,3,19,0.00
2012-4-30,57.6,43.7,26.5,34.6,23.9,12.2,74,48,25,30.35,30.14,3,0,7,0.00
2012-5-1,48.8,43.0,40.9,40.9,38.4,30.3,93,85,50,30.15,30.06,5,1,9,0.30
2012-5-2,54.8,46.6,41.0,46.3,42.1,39.0,93,85,71,30.22,30.13,6,2,9,0.00
2012-5-3,56.0,49.3,43.4,50.2,45.8,41.8,95,88,78,30.17,30.03,5,2,11,0.02
2012-5-4,54.2,51.5,48.7,52.8,50.0,47.3,96,95,90,30.02,29.89,5,0,8,0.20
2012-5-5,57.7,47.4,34.4,51.1,41.1,32.0,96,80,48,30.14,29.92,4,1,8,0.07
2012-5-6,63.3,46.8,29.9,40.0,31.3,22.5,95,62,22,30.16,30.08,3,0,11,0.00
2012-5-7,69.5,50.6,28.5,41.2,29.1,16.9,89,53,16,30.17,30.00,4,0,8,0.00
2012-5-8,53.2,48.5,44.5,47.3,44.0,40.5,96,85,64,30.01,29.81,13,3,14,0.63
2012-5-9,59.7,52.7,47.6,57.7,51.4,46.5,98,95,89,29.82,29.58,2,0,5,0.04
2012-5-10,53.0,50.1,43.6,51.3,47.2,40.4,95,90,75,29.61,29.41,7,1,9,0.16
2012-5-11,58.2,47.1,36.1,41.2,36.4,30.1,92,70,36,30.02,29.61,6,2,10,0.02
2012-5-12,72.8,53.3,30.0,49.3,37.3,27.4,93,61,26,30.12,30.02,7,1,19,0.00
2012-5-13,67.1,56.8,47.9,55.4,49.3,45.1,92,77,57,30.15,30.08,2,0,8,0.00
2012-5-14,67.5,56.4,48.1,57.0,52.0,45.9,96,86,65,30.16,30.06,8,1,12,0.00
2012-5-15,59.8,57.9,56.4,58.3,56.3,54.9,96,94,90,30.09,29.95,6,1,10,0.67
2012-5-16,72.4,60.2,53.9,60.0,56.3,52.8,97,88,57,29.94,29.72,8,1,13,0.32
2012-5-17,58.5,51.3,35.8,54.0,37.6,33.0,97,62,41,30.19,29.82,6,2,11,0.00
2012-5-18,70.1,51.3,30.5,45.7,37.7,29.2,97,66,29,30.27,30.13,4,0,7,0.00
2012-5-19,79.7,59.6,38.1,53.8,45.5,36.5,98,65,32,30.22,30.08,2,0,4,0.00
2012-5-20,83.6,74.6,56.7,58.8,53.8,49.0,88,52,33,30.25,30.15,4,1,8,0.00
2012-5-21,77.3,63.6,47.0,58.7,50.0,45.6,97,66,35,30.24,30.02,10,2,12,0.00
2012-5-22,70.4,64.5,59.6,61.7,59.7,58.0,96,85,66,30.02,29.82,8,1,11,0.03
2012-5-23,73.9,63.5,55.6,60.2,58.3,53.0,97,85,59,30.00,29.83,1,0,4,0.01
2012-5-24,76.8,68.5,50.7,64.3,60.9,50.2,99,78,63,30.17,30.12,9,4,13,0.00
2012-5-25,68.5,63.3,60.6,62.9,59.4,57.3,91,87,79,30.18,30.00,8,3,12,0.00
2012-5-26,76.6,65.8,51.3,62.6,54.5,46.1,98,71,35,30.12,30.00,5,1,9,0.00
2012-5-27,72.9,60.1,44.7,54.0,48.0,43.0,96,68,36,30.20,30.02,4,0,9,0.00
2012-5-28,78.0,63.7,49.0,62.5,55.0,47.3,96,75,49,30.06,29.83,4,0,9,0.01
2012-5-29,65.9,61.4,58.4,63.8,59.5,56.9,97,94,78,29.84,29.65,6,1,8,1.34
2012-5-30,75.3,64.3,54.3,61.3,57.4,52.9,98,80,47,29.71,29.63,3,0,7,0.64
2012-5-31,68.1,57.3,45.7,58.3,49.4,43.2,99,77,49,29.99,29.70,5,1,11,0.01
2012-6-1,69.4,56.2,37.9,49.3,42.8,35.9,98,65,30,30.09,29.96,4,0,5,0.00
2012-6-2,57.7,53.4,50.9,50.7,47.7,41.1,96,82,54,29.98,29.76,8,2,18,0.85
2012-6-3,59.0,52.4,47.9,52.6,49.5,46.1,97,90,74,29.76,29.69,2,0,6,0.15
2012-6-4,52.8,49.1,46.9,48.9,46.6,45.5,98,91,82,29.87,29.71,1,0,5,0.20
2012-6-5,62.7,51.6,42.3,51.8,46.6,40.7,95,84,61,29.94,29.83,2,0,7,0.02
2012-6-6,64.5,52.8,41.2,55.0,48.3,39.9,100,86,59,30.00,29.91,2,0,5,0.16
2012-6-7,68.0,55.7,42.9,54.0,47.0,41.8,98,76,44,29.98,29.88,3,0,8,0.00
2012-6-8,71.9,57.6,42.2,58.2,50.9,40.9,97,81,50,29.91,29.70,5,1,12,0.06
2012-6-9,71.5,57.8,42.5,54.1,46.4,41.3,99,71,36,29.97,29.77,3,1,10,0.01
2012-6-10,79.6,60.0,39.3,56.7,46.4,38.0,98,68,29,30.16,29.96,2,0,4,0.00
2012-6-11,76.3,63.0,50.9,61.1,54.6,48.7,96,76,57,30.22,30.10,7,2,13,0.00
2012-6-12,76.5,62.9,52.2,63.0,56.8,49.8,95,81,61,30.10,29.86,7,2,13,0.09
2012-6-13,69.1,61.9,50.6,60.9,57.8,48.7,96,87,61,30.13,29.82,3,0,7,0.17
2012-6-14,71.6,58.1,43.5,51.7,45.7,41.5,98,68,37,30.31,30.14,4,1,7,0.00
2012-6-15,77.3,58.3,39.8,57.5,46.2,38.2,98,69,33,30.37,30.25,2,0,5,0.00
2012-6-16,79.0,62.6,42.6,59.2,51.2,41.3,98,71,39,30.35,30.17,4,1,8,0.00
2012-6-17,75.1,62.2,52.6,58.9,53.2,49.3,92,74,53,30.21,30.00,7,2,13,0.00
2012-6-18,70.5,60.5,49.2,57.1,53.1,47.3,96,78,56,30.11,30.01,7,2,12,0.00
2012-6-19,77.5,61.8,46.2,67.9,57.1,44.8,97,86,65,30.10,29.95,5,1,7,0.00
2012-6-20,87.8,74.4,59.3,70.0,65.6,58.1,98,77,48,29.98,29.84,4,1,11,0.01
2012-6-21,88.3,78.7,65.7,73.7,68.3,64.2,96,72,50,29.85,29.68,4,1,9,0.00
2012-6-22,80.9,71.4,57.1,67.3,61.3,54.6,96,73,46,29.78,29.69,4,1,9,0.00
2012-6-23,74.3,64.3,53.3,64.4,57.5,51.8,98,80,58,29.92,29.78,3,0,8,0.01
2012-6-24,77.8,62.2,45.3,62.0,50.9,44.0,98,72,34,29.95,29.83,6,1,11,0.05
2012-6-25,66.8,58.9,53.2,62.1,56.7,50.7,96,92,75,29.84,29.65,3,0,5,0.37
2012-6-26,60.0,54.8,51.6,56.4,52.4,49.5,95,92,86,29.68,29.52,4,1,8,0.09
2012-6-27,63.2,58.6,55.9,58.9,55.9,54.2,94,91,81,29.69,29.48,6,2,14,0.27
2012-6-28,74.6,63.6,53.7,62.3,57.5,52.2,95,82,55,29.73,29.66,5,1,8,0.02
2012-6-29,86.1,67.1,50.5,71.2,59.1,49.1,98,79,43,29.69,29.49,8,1,9,0.30
2012-6-30,83.3,70.6,55.5,62.8,57.2,53.0,95,66,36,29.69,29.57,6,1,11,0.00
2012-7-1,78.6,66.9,55.2,65.9,59.6,53.9,100,79,54,29.83,29.67,4,0,10,0.00
2012-7-2,75.5,63.8,51.4,62.7,56.8,50.0,98,80,52,29.89,29.82,4,1,6,0.22
2012-7-3,76.5,62.7,48.7,63.8,55.2,47.6,98,79,46,29.95,29.81,4,0,12,0.01
2012-7-4,65.4,59.4,55.5,63.9,58.1,53.8,97,95,94,29.81,29.69,0,0,0,0.92
2012-7-5,70.8,64.4,55.7,62.9,60.4,54.3,98,87,72,29.89,29.72,3,0,7,0.00
2012-7-6,81.7,67.2,50.3,71.6,61.1,49.2,99,83,53,29.94,29.78,3,0,6,0.01
2012-7-7,79.6,71.0,61.5,66.9,62.6,58.8,97,77,50,29.80,29.70,5,1,10,0.01
2012-7-8,72.8,64.3,50.2,59.3,53.4,45.4,96,71,38,29.89,29.76,7,2,13,0.00
2012-7-9,70.8,56.5,42.7,54.2,46.6,41.5,98,73,40,30.00,29.88,6,2,10,0.00
2012-7-10,76.0,58.6,40.0,56.1,47.7,38.7,98,72,35,30.09,30.00,6,1,11,0.00
2012-7-11,80.2,64.3,45.7,62.2,52.6,44.4,98,71,35,30.19,30.09,5,1,9,0.00
2012-7-12,84.0,65.7,46.5,65.0,54.4,45.1,98,72,35,30.19,30.06,7,1,9,0.00
2012-7-13,86.6,67.5,49.3,65.8,56.1,47.9,100,72,32,30.18,30.07,6,1,9,0.00
2012-7-14,87.8,69.5,51.7,68.7,59.1,50.5,97,74,40,30.15,30.03,4,1,6,0.00
2012-7-15,83.9,70.4,55.2,69.8,63.1,54.0,100,80,54,30.08,29.85,9,1,12,0.11
2012-7-16,81.4,70.3,58.7,70.1,65.2,57.6,98,85,62,29.85,29.73,6,1,11,0.00
2012-7-17,80.9,68.1,59.9,75.8,66.3,58.8,98,94,81,29.76,29.57,4,1,6,0.99
2012-7-18,75.7,66.9,53.5,68.0,60.3,50.6,98,81,51,29.94,29.67,6,1,13,0.03
2012-7-19,69.0,56.8,44.9,54.8,49.3,43.8,98,78,50,30.08,29.94,4,1,8,0.00
2012-7-20,75.8,58.8,40.7,57.8,49.2,39.6,99,74,42,30.12,30.02,4,1,8,0.00
2012-7-21,78.5,61.4,43.5,62.5,52.6,42.4,98,76,43,30.12,29.99,4,1,5,0.00
2012-7-22,81.6,67.4,54.7,69.7,59.8,53.3,97,79,52,30.08,29.97,6,1,8,0.00
2012-7-23,82.8,69.5,59.0,70.3,63.7,57.7,98,83,62,30.01,29.67,7,2,12,0.29
2012-7-24,73.1,64.2,56.2,69.3,62.1,52.7,98,93,75,29.73,29.55,4,1,6,0.84
2012-7-25,71.8,61.6,52.9,58.7,53.2,50.0,92,76,50,29.85,29.73,5,2,9,0.00
2012-7-26,62.9,57.5,54.6,61.1,55.7,52.6,97,94,89,29.77,29.63,4,0,5,0.16
2012-7-27,79.3,67.3,60.0,64.6,61.7,58.0,98,84,56,29.92,29.64,3,1,5,0.00
2012-7-28,79.1,67.6,56.2,66.9,61.0,55.1,98,81,57,29.99,29.93,5,1,6,0.00
2012-7-29,77.0,64.6,58.6,65.6,60.8,57.5,98,89,60,30.02,29.95,4,1,6,0.01
2012-7-30,80.8,64.0,54.4,68.5,59.4,53.2,98,87,48,30.10,29.98,5,1,6,0.00
2012-7-31,80.9,68.2,55.0,67.9,60.3,53.9,99,79,45,30.05,29.88,9,3,13,0.00
2012-8-1,75.8,61.8,52.8,67.7,58.6,51.4,98,90,74,29.89,29.79,4,1,5,0.00
2012-8-2,83.8,69.3,58.2,69.7,62.8,57.4,98,82,50,29.87,29.79,4,1,7,0.01
2012-8-3,83.0,69.4,59.1,69.2,63.3,58.0,98,83,58,30.09,29.85,5,1,9,0.00
2012-8-4,86.7,67.9,53.5,71.3,60.8,52.4,98,81,46,30.20,30.10,6,1,9,0.00
2012-8-5,80.6,66.8,59.0,72.3,63.9,57.7,98,91,73,30.15,29.83,8,2,13,0.21
2012-8-6,69.6,64.5,52.1,66.4,59.4,50.4,97,85,63,29.99,29.85,5,2,9,0.17
2012-8-7,79.9,58.7,45.6,61.5,52.2,44.5,98,83,42,30.03,29.90,5,1,8,0.01
2012-8-8,81.2,64.7,49.7,68.9,57.9,48.6,98,81,48,30.00,29.92,4,0,5,0.00
2012-8-9,77.8,63.6,55.5,69.8,61.3,54.4,98,93,70,29.95,29.87,3,0,3,0.05
2012-8-10,74.4,67.0,64.0,69.3,65.5,63.1,98,95,83,29.89,29.81,6,1,6,0.68
2012-8-11,78.0,68.8,59.3,69.7,65.6,58.4,99,90,73,29.87,29.82,7,2,10,0.01
2012-8-12,80.3,70.8,59.2,68.6,64.7,57.8,96,83,53,29.89,29.80,6,2,9,0.04
2012-8-13,77.8,65.7,56.8,65.3,60.4,55.9,98,84,60,29.93,29.86,5,1,6,0.00
2012-8-14,76.6,67.7,57.1,67.0,62.4,56.0,98,84,64,29.94,29.86,5,1,7,0.00
2012-8-15,78.0,66.4,57.7,67.5,62.3,56.6,98,88,62,29.90,29.83,4,1,7,0.01
2012-8-16,75.8,66.8,53.6,64.7,60.0,51.9,98,80,54,29.88,29.78,4,1,8,0.00
2012-8-17,77.7,61.9,48.6,68.8,58.1,47.5,99,88,66,29.83,29.70,8,1,10,0.11
2012-8-18,70.8,59.1,46.7,59.5,52.0,45.1,99,80,49,29.95,29.81,6,1,9,0.01
2012-8-19,72.4,55.5,39.2,59.7,48.4,38.2,99,80,42,30.03,29.89,3,1,6,0.01
2012-8-20,75.2,58.9,41.5,61.7,50.7,40.4,99,77,44,29.94,29.81,6,1,7,0.00
2012-8-21,73.3,64.1,48.0,60.1,52.7,46.4,98,69,44,30.08,29.94,5,2,8,0.02
2012-8-22,76.2,59.2,42.4,59.2,50.7,41.3,99,77,40,30.15,30.06,5,1,8,0.00
2012-8-23,78.5,62.1,44.6,62.8,54.8,43.5,99,80,48,30.14,30.05,6,1,9,0.01
2012-8-24,80.3,66.0,54.1,65.3,59.0,53.3,98,81,47,30.21,30.13,4,1,7,0.04
2012-8-25,79.3,64.8,49.0,68.1,59.4,48.0,99,84,60,30.30,30.21,6,1,9,0.01
2012-8-26,82.3,67.4,53.2,66.6,60.3,52.4,99,81,49,30.32,30.16,5,1,9,0.00
2012-8-27,79.7,66.1,53.2,66.9,61.6,52.2,99,87,59,30.17,29.85,8,2,13,0.05
2012-8-28,72.7,64.4,50.2,67.3,60.4,47.5,98,87,68,29.91,29.75,4,1,7,0.51
2012-8-29,70.5,55.8,39.3,54.4,46.8,38.0,100,75,47,29.98,29.91,6,2,11,0.00
2012-8-30,76.5,58.9,40.4,62.6,50.9,39.4,97,78,45,30.02,29.88,6,1,11,0.00
2012-8-31,74.0,60.3,49.9,66.8,58.2,48.8,100,93,75,29.93,29.76,4,0,5,0.27
2012-9-1,74.2,62.8,47.2,60.7,54.9,45.8,98,78,49,30.10,29.88,4,1,7,0.01
2012-9-2,73.2,60.5,46.0,58.0,50.5,44.6,97,73,42,30.15,30.07,4,1,8,0.00
2012-9-3,75.2,55.9,41.6,61.0,52.0,40.5,98,88,57,30.22,30.08,5,1,8,0.01
2012-9-4,63.1,59.2,51.2,61.4,57.6,50.1,98,95,92,30.11,29.82,6,2,8,0.12
2012-9-5,71.9,64.4,55.7,65.5,62.0,54.9,98,92,77,29.85,29.65,3,1,6,1.66
2012-9-6,76.4,66.2,52.6,68.7,62.5,51.8,99,89,71,29.88,29.78,5,1,7,0.01
2012-9-7,78.4,65.2,52.6,66.4,58.5,51.8,99,82,48,29.92,29.83,6,1,10,0.01
2012-9-8,78.0,64.9,54.9,67.7,61.6,53.8,98,90,62,29.84,29.47,11,3,16,1.17
2012-9-9,65.6,55.4,45.2,57.0,49.1,43.9,99,81,53,29.91,29.65,6,1,11,0.00
2012-9-10,56.6,50.4,43.0,50.4,45.8,41.6,97,85,65,30.10,29.91,5,1,10,0.01
2012-9-11,65.5,50.3,34.2,51.8,42.7,32.9,98,78,48,30.27,30.10,5,1,7,0.00
2012-9-12,74.4,54.1,37.5,58.4,48.1,36.5,98,83,53,30.37,30.26,6,1,9,0.01
2012-9-13,78.7,58.6,42.1,65.4,52.4,41.0,99,83,49,30.35,30.20,6,1,9,0.00
2012-9-14,78.1,60.6,46.1,63.8,54.7,45.3,100,84,50,30.24,29.99,7,1,13,0.01
2012-9-15,62.6,55.5,44.7,58.9,49.8,42.8,97,81,63,30.05,29.95,7,2,10,0.03
2012-9-16,58.3,45.1,32.2,43.6,37.9,30.9,100,79,46,30.10,30.02,5,1,10,0.00
2012-9-17,71.2,49.8,30.6,59.8,44.0,29.3,98,83,54,30.12,29.99,7,1,11,0.01
2012-9-18,65.5,53.5,43.8,64.0,52.0,42.7,97,95,89,30.02,29.58,9,3,14,0.61
2012-9-19,65.1,49.5,34.9,63.0,41.8,33.6,96,76,49,30.24,29.58,7,2,9,0.13
2012-9-20,60.7,44.1,29.2,45.6,38.0,28.2,98,82,52,30.31,30.15,7,2,11,0.01
2012-9-21,66.6,49.8,35.6,53.7,44.3,34.6,98,83,60,30.17,30.02,8,3,11,0.00
2012-9-22,67.6,54.7,43.5,58.8,52.0,42.2,98,91,68,30.05,29.77,10,2,13,0.31
2012-9-23,59.6,51.7,36.6,55.7,43.8,35.0,97,77,44,30.08,29.79,7,2,12,0.11
2012-9-24,56.6,43.6,34.3,47.1,38.9,33.0,96,85,55,30.09,30.04,6,1,6,0.01
2012-9-25,66.9,47.8,30.0,48.5,39.7,28.9,98,77,41,30.10,30.02,11,2,16,0.00
2012-9-26,59.5,51.6,42.3,57.4,50.3,40.6,98,95,92,30.08,29.96,5,1,6,0.60
2012-9-27,55.7,45.7,32.8,52.3,41.3,31.3,98,86,58,30.28,30.04,4,1,9,0.01
2012-9-28,46.7,40.1,29.7,45.9,38.9,28.4,98,95,82,30.29,30.08,6,0,7,0.12
2012-9-29,55.0,50.2,46.6,51.9,48.8,45.8,98,95,88,30.08,29.91,2,0,3,0.17
2012-9-30,54.3,51.4,48.9,52.9,50.1,47.9,98,95,91,29.93,29.59,2,0,4,0.22
2012-10-1,57.0,52.1,48.3,53.0,49.9,46.9,97,92,83,29.89,29.55,7,3,11,0.14
2012-10-2,62.3,54.4,45.1,57.7,52.4,44.0,98,93,83,30.06,29.89,3,0,5,0.00
2012-10-3,61.0,57.8,53.6,60.1,56.9,52.8,100,97,94,30.14,30.05,4,0,5,0.23
2012-10-4,60.2,59.1,58.3,59.6,58.5,57.7,98,98,97,30.14,30.01,4,1,6,0.09
2012-10-5,71.3,57.3,51.3,61.4,54.9,50.8,99,93,60,30.00,29.85,5,1,7,0.01
2012-10-6,62.1,56.6,49.2,58.6,55.1,46.7,98,95,87,29.86,29.66,5,1,9,0.24
2012-10-7,48.6,39.9,33.0,40.2,36.4,32.0,98,88,65,30.09,29.94,2,0,3,0.08
2012-10-8,50.3,40.4,30.2,41.2,36.3,28.9,97,87,48,30.35,30.08,5,1,8,0.04
2012-10-9,54.0,40.4,26.4,43.3,35.9,25.2,97,85,65,30.36,30.15,7,2,10,0.01
2012-10-10,52.1,45.1,36.4,49.3,42.8,35.0,97,92,81,30.15,29.72,8,2,11,0.60
2012-10-11,49.3,42.2,36.4,40.7,35.0,28.7,93,77,48,30.05,29.77,8,4,15,0.05
2012-10-12,43.2,37.4,27.0,39.8,31.2,23.5,91,79,59,30.38,29.91,8,3,11,0.22
2012-10-13,46.1,34.7,21.3,33.6,26.8,19.4,95,75,44,30.46,30.26,5,1,10,0.00
2012-10-14,51.0,41.8,32.9,49.9,40.5,30.9,98,95,71,30.28,29.87,7,2,10,0.30
2012-10-15,62.7,54.4,49.5,58.8,52.9,48.7,100,95,84,29.86,29.57,8,1,8,0.28
2012-10-16,51.4,42.9,36.6,50.6,38.8,31.4,97,86,74,29.88,29.58,8,4,15,0.00
2012-10-17,56.2,40.4,26.5,43.4,35.0,25.3,97,83,52,30.01,29.89,4,1,7,0.00
2012-10-18,63.7,46.5,30.8,43.9,37.4,29.8,98,75,37,30.09,29.99,9,2,12,0.00
2012-10-19,55.4,49.1,45.1,54.6,47.0,42.5,97,92,87,30.08,29.74,6,1,12,0.84
2012-10-20,68.7,59.3,50.2,61.8,53.2,43.9,100,82,43,29.74,29.55,10,2,14,0.02
2012-10-21,51.5,46.3,38.9,45.8,41.7,37.6,97,84,70,29.84,29.68,6,2,14,0.01
2012-10-22,52.7,46.6,40.0,42.8,40.3,37.0,92,79,66,30.02,29.84,5,2,11,0.01
2012-10-23,53.7,41.4,29.0,41.5,35.6,27.5,97,81,49,30.19,30.02,5,1,7,0.00
2012-10-24,57.1,39.7,24.7,37.8,29.8,22.4,97,73,27,30.26,30.16,3,1,5,0.00
2012-10-25,60.5,40.1,28.8,43.6,34.9,26.9,93,83,46,30.28,30.21,2,0,4,0.00
2012-10-26,68.8,50.2,37.0,55.1,45.4,35.7,97,85,61,30.24,30.07,7,1,9,0.00
2012-10-27,66.8,50.8,38.9,56.7,47.5,38.0,99,89,67,30.13,29.98,5,1,8,0.01
2012-10-28,60.5,51.5,41.7,50.2,44.6,40.9,98,79,56,30.05,29.90,3,1,5,0.00
2012-10-29,59.1,53.5,49.8,53.9,48.9,44.5,90,85,73,29.90,29.39,7,3,17,0.08
2012-10-30,65.0,58.5,55.1,56.7,54.9,52.8,97,88,69,29.56,29.41,9,3,13,1.01
2012-10-31,57.2,48.6,41.4,54.7,45.9,38.7,99,90,81,29.52,29.43,10,2,11,0.04
2012-11-1,44.5,42.7,39.8,40.1,38.8,37.5,95,86,77,29.50,29.47,8,2,10,0.00
2012-11-2,42.8,40.8,37.8,40.3,36.6,33.4,94,85,71,29.64,29.50,5,2,8,0.00
2012-11-3,38.9,37.3,35.8,35.0,33.8,32.6,92,87,80,29.84,29.64,6,2,8,0.00
2012-11-4,37.7,34.0,31.7,34.1,30.7,26.3,93,88,79,30.00,29.85,4,2,7,0.02
2012-11-5,32.4,29.6,26.4,27.5,23.0,18.4,92,76,57,30.13,29.99,5,2,11,0.00
2012-11-6,34.1,26.2,17.2,20.1,17.4,14.5,89,70,49,30.28,30.13,5,1,6,0.00
2012-11-7,32.9,25.1,13.1,23.5,17.9,10.5,91,75,58,30.29,30.02,4,1,7,0.00
2012-11-8,34.2,31.3,27.6,30.9,26.2,20.0,93,81,64,30.01,29.90,5,2,8,0.03
2012-11-9,40.8,35.5,29.4,33.5,29.1,24.6,93,78,55,30.12,29.92,6,2,14,0.00
2012-11-10,42.1,35.2,26.2,33.3,25.8,18.7,85,70,41,30.47,30.11,6,2,9,0.00
2012-11-11,55.1,35.9,30.3,41.9,29.7,22.3,92,78,61,30.45,30.37,2,0,3,0.00
2012-11-12,64.4,49.3,31.8,51.5,41.3,29.7,94,76,51,30.41,30.08,11,4,20,0.00
2012-11-13,60.8,39.8,25.2,54.0,35.3,22.9,93,84,64,30.48,30.00,10,3,16,0.56
2012-11-14,38.1,28.3,21.5,27.9,21.8,18.5,92,78,53,30.63,30.48,5,1,10,0.00
2012-11-15,37.6,26.5,18.7,26.9,21.7,16.1,91,83,63,30.56,30.37,2,0,4,0.00
2012-11-16,39.7,27.3,17.5,27.1,22.0,14.7,93,81,58,30.51,30.36,4,1,8,0.00
2012-11-17,41.5,29.3,19.8,29.2,22.1,16.8,92,77,39,30.73,30.51,4,0,5,0.00
2012-11-18,42.5,26.5,14.9,27.4,20.0,12.2,90,78,49,30.77,30.67,3,0,5,0.00
2012-11-19,43.4,27.3,16.2,28.3,21.7,13.5,91,81,53,30.67,30.34,2,0,6,0.00
2012-11-20,48.6,28.2,18.0,31.4,23.2,15.3,100,82,47,30.33,30.17,3,0,5,0.00
2012-11-21,49.6,34.2,24.7,31.2,26.2,21.7,90,75,40,30.29,30.21,5,1,5,0.00
2012-11-22,28.3,24.1,21.6,25.2,21.4,18.8,91,89,88,30.30,30.11,1,0,2,0.00
2012-11-23,52.8,43.1,25.7,40.4,34.1,23.3,93,72,46,30.11,29.58,8,2,14,0.03
2012-11-24,41.8,32.0,23.9,40.0,28.1,20.3,94,86,71,29.59,29.49,9,4,16,0.11
2012-11-25,26.6,19.4,8.8,20.0,13.6,5.7,90,78,58,29.84,29.60,10,3,23,0.02
2012-11-26,27.7,18.6,6.9,23.8,14.6,3.8,90,84,63,30.29,29.83,7,1,10,0.01
2012-11-27,30.0,20.7,10.5,22.6,16.5,7.9,90,84,71,30.34,30.28,3,0,3,0.00
2012-11-28,32.3,23.7,13.0,26.1,19.7,10.1,92,85,66,30.30,30.10,4,0,5,0.00
2012-11-29,31.2,24.7,17.5,28.3,20.5,12.7,92,84,70,30.30,30.06,7,3,13,0.15
2012-11-30,17.4,8.5,-0.6,13.9,3.6,-4.3,87,80,64,30.66,30.31,3,1,6,0.00
2012-12-1,24.9,16.5,3.4,22.9,13.6,0.2,92,88,83,30.67,30.51,2,0,3,0.02
2012-12-2,39.8,35.6,24.8,38.6,34.4,22.8,97,95,92,30.50,29.95,5,2,7,0.23
2012-12-3,44.5,36.8,33.7,43.8,34.9,31.4,98,93,89,30.30,29.95,6,1,9,0.00
2012-12-4,48.8,40.0,33.6,48.0,38.4,31.6,98,94,90,30.29,29.85,6,3,9,0.01
2012-12-5,49.1,35.2,25.4,48.3,30.9,17.7,97,84,69,30.18,29.82,8,3,15,0.51
2012-12-6,31.2,23.6,17.3,21.8,18.1,14.6,90,80,62,30.40,30.18,6,2,10,0.00
2012-12-7,34.8,28.5,19.7,29.1,22.5,17.0,91,79,59,30.27,30.06,8,1,9,0.00
2012-12-8,34.7,32.5,28.2,33.2,30.3,25.4,95,91,84,30.07,29.83,5,1,7,0.01
2012-12-9,36.7,33.6,28.0,33.2,27.6,23.5,92,79,69,30.34,30.05,6,3,8,0.01
2012-12-10,41.2,38.1,35.5,40.3,36.8,34.0,97,95,93,29.60,29.51,3,1,4,0.58
2012-12-11,35.5,28.4,23.6,34.2,24.2,18.9,95,84,75,30.18,29.59,7,2,12,0.03
2012-12-12,34.1,25.7,16.6,25.0,20.9,13.8,92,82,65,30.41,30.18,5,1,7,0.00
2012-12-13,36.0,28.4,20.0,28.0,23.5,17.7,92,83,59,30.47,30.27,4,1,6,0.00
2012-12-14,38.0,28.4,15.6,30.3,23.9,13.2,92,83,67,30.28,30.07,5,2,8,0.00
2012-12-15,29.9,19.8,9.5,24.5,11.8,2.2,87,72,36,30.39,30.22,4,2,7,0.00
2012-12-16,24.0,17.5,10.2,22.3,13.9,7.1,93,85,74,30.36,30.12,5,1,7,0.15
2012-12-17,32.4,26.6,24.0,31.1,24.9,22.1,96,93,91,30.12,29.95,6,3,8,0.17
2012-12-19,34.8,33.0,32.2,32.2,30.4,29.0,93,90,87,30.07,29.61,4,2,7,0.01
2012-12-20,34.1,31.5,28.8,29.5,27.6,26.2,92,85,76,30.24,29.97,6,2,8,0.00
2012-12-21,45.1,34.9,30.1,43.2,32.5,27.5,96,91,81,29.98,28.98,11,5,18,0.22
2012-12-22,33.7,25.7,17.1,30.9,21.7,11.7,92,85,75,29.64,29.09,8,3,15,0.04
2012-12-23,25.7,20.4,12.9,23.4,16.0,8.7,92,83,73,29.85,29.65,9,3,13,0.04
2012-12-24,25.4,16.0,9.3,17.7,11.9,6.5,90,84,71,30.11,29.85,7,1,11,0.00
2012-12-25,22.9,14.3,5.9,17.4,10.4,2.9,90,84,74,30.38,30.06,5,1,8,0.00
2012-12-26,26.2,12.5,-2.4,18.7,7.7,-6.0,92,81,65,30.43,30.08,4,0,5,0.00
2012-12-27,29.9,24.4,19.3,27.7,21.7,16.4,98,90,83,30.07,29.62,6,2,13,0.36
2012-12-28,23.7,21.0,16.6,20.3,18.2,13.9,92,89,85,30.06,29.74,5,2,9,0.00
2012-12-29,23.6,18.1,7.7,21.1,15.4,4.4,91,89,85,30.06,29.58,3,0,4,0.12
2012-12-30,19.8,12.5,5.0,17.1,8.7,1.3,97,84,76,30.05,29.58,8,3,15,0.02
2012-12-31,22.8,16.3,6.8,20.6,12.6,3.5,91,85,78,30.06,29.70,6,1,8,0.00
2013-1-1,26.5,13.1,5.0,23.7,7.5,-0.6,92,78,66,29.93,29.67,9,4,14,0.06